KDRT

Del Rio International Airport

Airport
ICAO code
KDRT
IATA Code
DRT
Summary
ICAO Region
NAM
ICAO Territory
Location

Del Rio, Texas

Serving
Del Rio
Elevation
1002 ft
Coordinates
29° 22' 22" N , 100° 55' 33" W
KCC
Airport WX
Tropical Revolving Storm
Metar
KDRT 251153Z AUTO 09010KT 10SM CLR 29/22 A2993 RMK AO2 SLP123 T02890222 10328 20289 51022 $

Description

Del Rio International Airport is a public use airport located 2 nm northwest of the central business district of Del Rio, a city in Val Verde County, Texas.

Airport map

Aerial View

SKYbrary Partners:

Safety knowledge contributed by: